• Join FlightAware (Why Join?)
  • Login
  • US Flag 
01:58AM EDT


 

Airport Tracker/Info


-or-


 

Live Flight TrackerFlight Track Log ✈ VH-CKF ✈ 14-10-2013 ✈ YPJT / JAD - YPJT / JAD

Flight Track Log - Related Links

Times and Time Zones

All times are in EDT time to prevent confusion due to time zone crossing. See the VH-CKF flight status page for this flight to view local times or setup timezone preferences in your user account.

Time Position Orientation Groundspeed Altitude Reporting Facility
EDT Latitude Longitude Course Direction KTS MPH feet Rate Location/Type
01:03AM -32.0645 115.8165 295° West 62 71 1,500  Level Aus ATC (RADAR)
01:03AM -32.0599 115.8045 295° West 68 78 1,600 60 Climbing Aus ATC (RADAR)
01:04AM -32.0550 115.7908 293° West 74 85 1,600 -120 Level Aus ATC (RADAR)
01:05AM -32.0492 115.7781 298° West 74 85 1,500 -120 Descending Aus ATC (RADAR)
01:05AM -32.0375 115.7724 338° Northwest 76 87 1,500  Level Aus ATC (RADAR)
01:06AM -32.0167 115.7649 343° North 71 82 1,500  Level Aus ATC (RADAR)
01:07AM -32.0085 115.7633 351° North 71 82 1,500  Level Aus ATC (RADAR)
01:07AM -31.9990 115.7706 33° Northeast 70 81 1,500 60 Level Aus ATC (RADAR)
01:08AM -31.9922 115.7839 59° Northeast 69 79 1,600 60 Climbing Aus ATC (RADAR)
01:09AM -31.9868 115.7979 65° Northeast 70 81 1,600 -120 Level Aus ATC (RADAR)
01:09AM -31.9804 115.8132 64° Northeast 77 89 1,500  Descending Aus ATC (RADAR)
01:10AM -31.9757 115.8227 60° Northeast 78 90 1,600 60 Climbing Aus ATC (RADAR)
01:10AM -31.9698 115.8370 64° Northeast 81 93 1,600 -120 Level Aus ATC (RADAR)
01:11AM -31.9622 115.8675 74° East 82 94 1,400 -240 Descending Aus ATC (RADAR)
01:12AM -31.9532 115.8715 21° North 84 97 1,300  Descending Aus ATC (RADAR)
01:12AM -31.9455 115.8615 312° West 69 79 1,400 60 Climbing Aus ATC (RADAR)
01:13AM -31.9404 115.8460 291° West 65 75 1,400 60 Level Aus ATC (RADAR)
01:14AM -31.9385 115.8329 280° West 68 78 1,500 120 Climbing Aus ATC (RADAR)
01:14AM -31.9365 115.8158 278° West 67 77 1,600 60 Climbing Aus ATC (RADAR)
01:15AM -31.9361 115.8103 275° West 66 76 1,600  Level Aus ATC (RADAR)
01:18AM -31.9897 115.7992 190° South 1,500 -60 Descending Aus ATC (Calculated)
01:20AM -31.9979 115.7975 190° South  Level FlightAware Approximate
01:21AM -32.0701 115.7825 10° North 1,500  Level Aus ATC (Calculated)
01:21AM -32.0033 115.7964 190° South  Level FlightAware Approximate
01:22AM -32.0756 115.7814 190° South  Level FlightAware Approximate
01:23AM -32.0810 115.7803 190° South  Level FlightAware Approximate
01:24AM -32.0865 115.7791 190° South  Level FlightAware Approximate
01:25AM -32.0919 115.7780 190° South  Level FlightAware Approximate
01:25AM -32.0838 115.8319 220° Southwest 100  Level Aus ATC (Calculated)
01:27AM -32.0906 115.8252 220° Southwest  Level FlightAware Approximate
01:28AM -32.0948 115.8210 220° Southwest  Level FlightAware Approximate
01:28AM -32.0906 115.8565 256° West 100  Level Aus ATC (Calculated)
01:29AM -32.0991 115.8168 220° Southwest  Level FlightAware Approximate
01:30AM -32.0947 115.8504 232° Southwest  Level FlightAware Approximate
01:31AM -32.0981 115.8453 232° Southwest  Level FlightAware Approximate
01:32AM -32.1015 115.8401 232° Southwest  Level FlightAware Approximate
01:33AM -32.1049 115.8350 232° Southwest  Level FlightAware Approximate
01:34AM -32.1083 115.8298 232° Southwest  Level FlightAware Approximate
01:35AM -32.1117 115.8247 232° Southwest  Level FlightAware Approximate
01:36AM -32.1151 115.8195 232° Southwest  Level FlightAware Approximate
01:37AM -32.1185 115.8144 232° Southwest  Level FlightAware Approximate
01:38AM -32.1219 115.8092 232° Southwest  Level FlightAware Approximate
01:39AM -32.1253 115.8041 232° Southwest  Level FlightAware Approximate
01:40AM -32.1287 115.7990 232° Southwest  Level FlightAware Approximate
01:41AM -32.1321 115.7938 232° Southwest  Level FlightAware Approximate
01:42AM -32.1355 115.7887 232° Southwest  Level FlightAware Approximate
01:43AM -32.1389 115.7835 232° Southwest  Level FlightAware Approximate
01:44AM -32.1423 115.7784 232° Southwest  Level FlightAware Approximate
01:45AM -32.1457 115.7732 232° Southwest  Level FlightAware Approximate
01:46AM -32.1491 115.7681 232° Southwest  Level FlightAware Approximate
01:47AM -32.1525 115.7629 232° Southwest  Level FlightAware Approximate
01:48AM -32.1491 115.7681 52° Northeast  Level FlightAware Approximate
01:49AM -32.1525 115.7629 232° Southwest  Level FlightAware Approximate
01:50AM -32.1491 115.7681 52° Northeast  Level FlightAware Approximate
01:51AM -32.1525 115.7629 232° Southwest  Level FlightAware Approximate
01:52AM -32.1491 115.7681 52° Northeast  Level FlightAware Approximate
01:53AM -32.1525 115.7629 232° Southwest  Level FlightAware Approximate
01:54AM -32.1491 115.7681 52° Northeast  Level FlightAware Approximate
01:55AM -32.1525 115.7629 232° Southwest  Level FlightAware Approximate
01:56AM -32.1491 115.7681 52° Northeast  Level FlightAware Approximate
01:57AM -32.1525 115.7629 232° Southwest  Level FlightAware Approximate
01:58AM -32.1491 115.7681 52° Northeast  Level FlightAware Approximate
01:59AM -32.1506 115.7658 190° South  Level FlightAware Approximate
02:00AM -32.1479 115.7716 190° South  Level Estimated
02:01AM -32.1506 115.7658 190° South  Level FlightAware Approximate
02:02AM -32.1479 115.7716 190° South  Level Estimated
02:03AM -32.1506 115.7658 190° South  Level FlightAware Approximate
02:04AM -32.1479 115.7716 190° South  Level Estimated
02:05AM -32.1506 115.7658 190° South  Level FlightAware Approximate
02:06AM -32.1479 115.7716 190° South  Level Estimated
02:07AM -32.1506 115.7658 190° South  Level FlightAware Approximate
02:08AM -32.1479 115.7716 190° South  Level Estimated
02:09AM -32.1506 115.7658 190° South  Level FlightAware Approximate
02:10AM -32.1479 115.7716 190° South  Level Estimated
02:11AM -32.1506 115.7658 190° South  Level FlightAware Approximate
02:12AM -32.1479 115.7716 190° South  Level Estimated
02:13AM -32.1506 115.7658 190° South  Level FlightAware Approximate
02:14AM -32.1479 115.7716 190° South  Level Estimated
02:15AM -32.1506 115.7658 190° South  Level FlightAware Approximate
02:16AM -32.1479 115.7716 190° South  Level Estimated
02:17AM -32.1506 115.7658 190° South  Level FlightAware Approximate
02:18AM -32.1479 115.7716 190° South  Level Estimated
02:19AM -32.1506 115.7658 190° South  Level FlightAware Approximate
02:20AM -32.1479 115.7716 190° South  Level Estimated
02:21AM -32.1506 115.7658 190° South  Level FlightAware Approximate
02:22AM -32.1479 115.7716 190° South  Level Estimated
02:23AM -32.1506 115.7658 190° South  Level FlightAware Approximate
02:24AM -32.1479 115.7716 190° South  Level Estimated
02:25AM -32.1506 115.7658 190° South  Level FlightAware Approximate
02:26AM -32.1479 115.7716 190° South  Level Estimated
02:27AM -32.1506 115.7658 190° South  Level FlightAware Approximate
02:28AM -32.1479 115.7716 190° South  Level Estimated
02:29AM -32.1506 115.7658 190° South  Level FlightAware Approximate
02:30AM -32.1479 115.7716 190° South  Level Estimated
02:31AM -32.1506 115.7658 190° South  Level FlightAware Approximate
02:32AM -32.1479 115.7716 190° South  Level Estimated
02:33AM -32.1506 115.7658 190° South  Level FlightAware Approximate
02:34AM -32.1479 115.7716 190° South  Level Estimated
02:35AM -32.1506 115.7658 190° South  Level FlightAware Approximate
02:36AM -32.1479 115.7716 190° South  Level Estimated